sensor_id;sensor_type;location;lat;lon;timestamp;P1;durP1;ratioP1;P2;durP2;ratioP2
9834;SDS011;4956;50.996;13.716;2022-07-30T00:01:15;5.97;;;5.37;;
9834;SDS011;4956;50.996;13.716;2022-07-30T00:04:35;5.67;;;5.17;;
9834;SDS011;4956;50.996;13.716;2022-07-30T00:07:55;5.93;;;5.33;;
9834;SDS011;4956;50.996;13.716;2022-07-30T00:11:15;6.17;;;5.30;;
9834;SDS011;4956;50.996;13.716;2022-07-30T00:14:36;6.00;;;5.50;;
9834;SDS011;4956;50.996;13.716;2022-07-30T00:17:56;6.57;;;5.27;;
9834;SDS011;4956;50.996;13.716;2022-07-30T00:21:17;6.18;;;5.30;;
9834;SDS011;4956;50.996;13.716;2022-07-30T00:24:37;5.57;;;5.05;;
9834;SDS011;4956;50.996;13.716;2022-07-30T00:27:58;6.03;;;5.43;;
9834;SDS011;4956;50.996;13.716;2022-07-30T00:31:18;8.10;;;5.20;;
9834;SDS011;4956;50.996;13.716;2022-07-30T00:34:38;6.30;;;5.70;;
9834;SDS011;4956;50.996;13.716;2022-07-30T00:37:59;6.00;;;5.40;;
9834;SDS011;4956;50.996;13.716;2022-07-30T00:41:19;5.50;;;5.00;;
9834;SDS011;4956;50.996;13.716;2022-07-30T00:44:39;7.17;;;5.50;;
9834;SDS011;4956;50.996;13.716;2022-07-30T00:48:00;6.47;;;5.55;;
9834;SDS011;4956;50.996;13.716;2022-07-30T00:51:20;5.70;;;5.18;;
9834;SDS011;4956;50.996;13.716;2022-07-30T00:54:41;6.05;;;5.45;;
9834;SDS011;4956;50.996;13.716;2022-07-30T00:58:01;5.93;;;5.32;;
9834;SDS011;4956;50.996;13.716;2022-07-30T01:01:21;6.23;;;5.63;;
9834;SDS011;4956;50.996;13.716;2022-07-30T01:04:42;6.57;;;5.70;;
9834;SDS011;4956;50.996;13.716;2022-07-30T01:08:02;5.70;;;5.10;;
9834;SDS011;4956;50.996;13.716;2022-07-30T01:11:23;5.95;;;5.38;;
9834;SDS011;4956;50.996;13.716;2022-07-30T01:14:48;5.35;;;4.85;;
9834;SDS011;4956;50.996;13.716;2022-07-30T01:18:09;6.87;;;5.27;;
9834;SDS011;4956;50.996;13.716;2022-07-30T01:21:31;6.25;;;5.32;;
9834;SDS011;4956;50.996;13.716;2022-07-30T01:28:24;6.05;;;4.90;;
9834;SDS011;4956;50.996;13.716;2022-07-30T01:31:47;5.07;;;4.68;;
9834;SDS011;4956;50.996;13.716;2022-07-30T01:35:09;6.65;;;5.25;;
9834;SDS011;4956;50.996;13.716;2022-07-30T01:38:30;6.28;;;5.68;;
9834;SDS011;4956;50.996;13.716;2022-07-30T01:41:52;6.32;;;5.35;;
9834;SDS011;4956;50.996;13.716;2022-07-30T01:45:13;7.63;;;6.15;;
9834;SDS011;4956;50.996;13.716;2022-07-30T01:48:36;5.93;;;5.28;;
9834;SDS011;4956;50.996;13.716;2022-07-30T01:51:59;7.55;;;5.72;;
9834;SDS011;4956;50.996;13.716;2022-07-30T01:55:26;7.35;;;5.57;;
9834;SDS011;4956;50.996;13.716;2022-07-30T01:58:54;7.07;;;5.82;;
9834;SDS011;4956;50.996;13.716;2022-07-30T02:02:17;7.80;;;7.00;;
9834;SDS011;4956;50.996;13.716;2022-07-30T02:05:39;6.15;;;5.65;;
9834;SDS011;4956;50.996;13.716;2022-07-30T02:09:02;6.75;;;6.13;;
9834;SDS011;4956;50.996;13.716;2022-07-30T02:12:25;8.00;;;6.60;;
9834;SDS011;4956;50.996;13.716;2022-07-30T02:15:51;7.18;;;6.10;;
9834;SDS011;4956;50.996;13.716;2022-07-30T02:19:18;6.53;;;5.90;;
9834;SDS011;4956;50.996;13.716;2022-07-30T02:22:40;8.07;;;7.00;;
9834;SDS011;4956;50.996;13.716;2022-07-30T02:26:03;8.02;;;6.55;;
9834;SDS011;4956;50.996;13.716;2022-07-30T02:29:27;7.75;;;6.22;;
9834;SDS011;4956;50.996;13.716;2022-07-30T02:32:49;7.07;;;6.20;;
9834;SDS011;4956;50.996;13.716;2022-07-30T02:36:10;7.82;;;6.50;;
9834;SDS011;4956;50.996;13.716;2022-07-30T02:39:32;7.28;;;6.10;;
9834;SDS011;4956;50.996;13.716;2022-07-30T02:42:53;7.10;;;6.40;;
9834;SDS011;4956;50.996;13.716;2022-07-30T02:46:17;6.45;;;5.85;;
9834;SDS011;4956;50.996;13.716;2022-07-30T02:49:58;7.30;;;6.57;;
9834;SDS011;4956;50.996;13.716;2022-07-30T02:53:20;7.95;;;7.10;;
9834;SDS011;4956;50.996;13.716;2022-07-30T02:56:41;7.70;;;7.00;;
9834;SDS011;4956;50.996;13.716;2022-07-30T03:00:03;7.97;;;7.22;;
9834;SDS011;4956;50.996;13.716;2022-07-30T03:03:24;8.85;;;7.55;;
9834;SDS011;4956;50.996;13.716;2022-07-30T03:06:49;8.18;;;7.38;;
9834;SDS011;4956;50.996;13.716;2022-07-30T03:10:10;7.95;;;7.22;;
9834;SDS011;4956;50.996;13.716;2022-07-30T03:13:32;9.38;;;8.13;;
9834;SDS011;4956;50.996;13.716;2022-07-30T03:16:54;7.90;;;7.18;;
9834;SDS011;4956;50.996;13.716;2022-07-30T03:20:16;8.32;;;6.90;;
9834;SDS011;4956;50.996;13.716;2022-07-30T03:23:38;10.25;;;7.80;;
9834;SDS011;4956;50.996;13.716;2022-07-30T03:26:59;8.60;;;7.28;;
9834;SDS011;4956;50.996;13.716;2022-07-30T03:30:22;8.82;;;8.00;;
9834;SDS011;4956;50.996;13.716;2022-07-30T03:33:44;9.70;;;8.70;;
9834;SDS011;4956;50.996;13.716;2022-07-30T03:37:06;8.90;;;7.65;;
9834;SDS011;4956;50.996;13.716;2022-07-30T03:40:28;8.63;;;7.75;;
9834;SDS011;4956;50.996;13.716;2022-07-30T03:43:48;8.65;;;7.78;;
9834;SDS011;4956;50.996;13.716;2022-07-30T03:47:14;9.55;;;8.55;;
9834;SDS011;4956;50.996;13.716;2022-07-30T03:50:40;8.98;;;7.45;;
9834;SDS011;4956;50.996;13.716;2022-07-30T03:54:01;10.65;;;8.02;;
9834;SDS011;4956;50.996;13.716;2022-07-30T03:57:34;10.68;;;7.93;;
9834;SDS011;4956;50.996;13.716;2022-07-30T04:00:55;10.00;;;8.00;;
9834;SDS011;4956;50.996;13.716;2022-07-30T04:04:16;9.07;;;8.20;;
9834;SDS011;4956;50.996;13.716;2022-07-30T04:07:36;8.52;;;7.72;;
9834;SDS011;4956;50.996;13.716;2022-07-30T04:10:57;8.35;;;7.55;;
9834;SDS011;4956;50.996;13.716;2022-07-30T04:14:39;8.82;;;7.93;;
9834;SDS011;4956;50.996;13.716;2022-07-30T04:18:01;8.60;;;7.70;;
9834;SDS011;4956;50.996;13.716;2022-07-30T04:21:23;9.23;;;8.25;;
9834;SDS011;4956;50.996;13.716;2022-07-30T04:24:44;8.88;;;7.90;;
9834;SDS011;4956;50.996;13.716;2022-07-30T04:28:05;8.38;;;7.57;;
9834;SDS011;4956;50.996;13.716;2022-07-30T04:31:26;9.23;;;8.25;;
9834;SDS011;4956;50.996;13.716;2022-07-30T04:34:53;8.10;;;7.30;;
9834;SDS011;4956;50.996;13.716;2022-07-30T04:38:32;9.93;;;7.75;;
9834;SDS011;4956;50.996;13.716;2022-07-30T04:41:53;8.57;;;7.68;;
9834;SDS011;4956;50.996;13.716;2022-07-30T04:45:28;9.02;;;8.13;;
9834;SDS011;4956;50.996;13.716;2022-07-30T04:48:53;9.20;;;8.32;;
9834;SDS011;4956;50.996;13.716;2022-07-30T04:52:14;8.93;;;7.90;;
9834;SDS011;4956;50.996;13.716;2022-07-30T04:55:36;8.75;;;7.85;;
9834;SDS011;4956;50.996;13.716;2022-07-30T04:59:00;8.30;;;7.50;;
9834;SDS011;4956;50.996;13.716;2022-07-30T05:02:21;9.63;;;7.55;;
9834;SDS011;4956;50.996;13.716;2022-07-30T05:05:42;7.78;;;7.07;;
9834;SDS011;4956;50.996;13.716;2022-07-30T05:09:03;9.60;;;7.90;;
9834;SDS011;4956;50.996;13.716;2022-07-30T05:12:31;8.73;;;7.93;;
9834;SDS011;4956;50.996;13.716;2022-07-30T05:15:52;9.05;;;7.47;;
9834;SDS011;4956;50.996;13.716;2022-07-30T05:19:14;9.07;;;7.75;;
9834;SDS011;4956;50.996;13.716;2022-07-30T05:22:34;9.38;;;8.43;;
9834;SDS011;4956;50.996;13.716;2022-07-30T05:25:55;12.17;;;9.20;;
9834;SDS011;4956;50.996;13.716;2022-07-30T05:29:25;9.10;;;8.13;;
9834;SDS011;4956;50.996;13.716;2022-07-30T05:32:51;9.65;;;8.32;;
9834;SDS011;4956;50.996;13.716;2022-07-30T05:36:11;9.20;;;8.30;;
9834;SDS011;4956;50.996;13.716;2022-07-30T05:39:32;10.18;;;8.93;;
9834;SDS011;4956;50.996;13.716;2022-07-30T05:43:24;9.38;;;8.02;;
9834;SDS011;4956;50.996;13.716;2022-07-30T05:46:45;8.23;;;7.43;;
9834;SDS011;4956;50.996;13.716;2022-07-30T05:50:05;10.25;;;8.48;;
9834;SDS011;4956;50.996;13.716;2022-07-30T05:53:26;8.77;;;7.90;;
9834;SDS011;4956;50.996;13.716;2022-07-30T05:57:19;10.15;;;7.93;;
9834;SDS011;4956;50.996;13.716;2022-07-30T06:00:39;9.40;;;8.50;;
9834;SDS011;4956;50.996;13.716;2022-07-30T06:04:01;8.35;;;7.47;;
9834;SDS011;4956;50.996;13.716;2022-07-30T06:07:40;9.68;;;8.00;;
9834;SDS011;4956;50.996;13.716;2022-07-30T06:11:02;8.52;;;7.05;;
9834;SDS011;4956;50.996;13.716;2022-07-30T06:14:23;10.13;;;7.72;;
9834;SDS011;4956;50.996;13.716;2022-07-30T06:17:44;9.02;;;6.60;;
9834;SDS011;4956;50.996;13.716;2022-07-30T06:21:13;9.55;;;6.85;;
9834;SDS011;4956;50.996;13.716;2022-07-30T06:25:00;8.70;;;6.72;;
9834;SDS011;4956;50.996;13.716;2022-07-30T06:28:20;7.55;;;6.55;;
9834;SDS011;4956;50.996;13.716;2022-07-30T06:31:41;10.13;;;7.28;;
9834;SDS011;4956;50.996;13.716;2022-07-30T06:35:03;7.85;;;7.07;;
9834;SDS011;4956;50.996;13.716;2022-07-30T06:38:25;8.25;;;7.45;;
9834;SDS011;4956;50.996;13.716;2022-07-30T06:41:51;8.02;;;7.00;;
9834;SDS011;4956;50.996;13.716;2022-07-30T06:45:12;9.20;;;6.95;;
9834;SDS011;4956;50.996;13.716;2022-07-30T06:48:53;9.30;;;7.65;;
9834;SDS011;4956;50.996;13.716;2022-07-30T06:52:13;10.75;;;7.38;;
9834;SDS011;4956;50.996;13.716;2022-07-30T06:55:39;11.38;;;7.22;;
9834;SDS011;4956;50.996;13.716;2022-07-30T06:59:00;7.10;;;6.40;;
9834;SDS011;4956;50.996;13.716;2022-07-30T07:02:20;7.20;;;6.50;;
9834;SDS011;4956;50.996;13.716;2022-07-30T07:06:09;7.25;;;6.53;;
9834;SDS011;4956;50.996;13.716;2022-07-30T07:09:30;9.13;;;6.68;;
9834;SDS011;4956;50.996;13.716;2022-07-30T07:13:11;8.88;;;6.55;;
9834;SDS011;4956;50.996;13.716;2022-07-30T07:16:31;10.13;;;6.60;;
9834;SDS011;4956;50.996;13.716;2022-07-30T07:19:56;11.05;;;7.30;;
9834;SDS011;4956;50.996;13.716;2022-07-30T07:23:18;7.72;;;6.88;;
9834;SDS011;4956;50.996;13.716;2022-07-30T07:26:39;7.68;;;6.88;;
9834;SDS011;4956;50.996;13.716;2022-07-30T07:30:01;6.50;;;5.90;;
9834;SDS011;4956;50.996;13.716;2022-07-30T07:33:23;7.13;;;6.47;;
9834;SDS011;4956;50.996;13.716;2022-07-30T07:36:46;8.48;;;6.40;;
9834;SDS011;4956;50.996;13.716;2022-07-30T07:40:06;8.70;;;6.55;;
9834;SDS011;4956;50.996;13.716;2022-07-30T07:43:32;10.10;;;7.38;;
9834;SDS011;4956;50.996;13.716;2022-07-30T07:46:54;8.23;;;7.30;;
9834;SDS011;4956;50.996;13.716;2022-07-30T07:50:17;8.05;;;7.15;;
9834;SDS011;4956;50.996;13.716;2022-07-30T07:53:38;11.32;;;7.88;;
9834;SDS011;4956;50.996;13.716;2022-07-30T07:56:58;12.43;;;8.48;;
9834;SDS011;4956;50.996;13.716;2022-07-30T08:00:30;7.35;;;6.65;;
9834;SDS011;4956;50.996;13.716;2022-07-30T08:03:50;11.05;;;7.97;;
9834;SDS011;4956;50.996;13.716;2022-07-30T08:07:34;9.13;;;7.70;;
9834;SDS011;4956;50.996;13.716;2022-07-30T08:11:14;8.52;;;7.32;;
9834;SDS011;4956;50.996;13.716;2022-07-30T08:15:09;9.20;;;8.30;;
9834;SDS011;4956;50.996;13.716;2022-07-30T08:18:49;10.68;;;8.65;;
9834;SDS011;4956;50.996;13.716;2022-07-30T08:22:20;12.05;;;9.02;;
9834;SDS011;4956;50.996;13.716;2022-07-30T08:25:41;10.38;;;9.15;;
9834;SDS011;4956;50.996;13.716;2022-07-30T08:29:01;10.53;;;9.10;;
9834;SDS011;4956;50.996;13.716;2022-07-30T08:32:21;11.52;;;10.32;;
9834;SDS011;4956;50.996;13.716;2022-07-30T08:35:42;11.90;;;9.23;;
9834;SDS011;4956;50.996;13.716;2022-07-30T08:39:03;9.93;;;8.93;;
9834;SDS011;4956;50.996;13.716;2022-07-30T08:42:24;13.00;;;9.70;;
9834;SDS011;4956;50.996;13.716;2022-07-30T08:45:46;11.05;;;9.70;;
9834;SDS011;4956;50.996;13.716;2022-07-30T08:49:41;14.43;;;10.05;;
9834;SDS011;4956;50.996;13.716;2022-07-30T08:53:02;11.32;;;10.05;;
9834;SDS011;4956;50.996;13.716;2022-07-30T08:56:22;11.40;;;10.30;;
9834;SDS011;4956;50.996;13.716;2022-07-30T08:59:43;12.10;;;10.77;;
9834;SDS011;4956;50.996;13.716;2022-07-30T09:03:03;10.98;;;9.93;;
9834;SDS011;4956;50.996;13.716;2022-07-30T09:06:24;10.82;;;9.82;;
9834;SDS011;4956;50.996;13.716;2022-07-30T09:09:44;10.10;;;9.10;;
9834;SDS011;4956;50.996;13.716;2022-07-30T09:13:05;10.23;;;9.20;;
9834;SDS011;4956;50.996;13.716;2022-07-30T09:16:42;10.27;;;9.38;;
9834;SDS011;4956;50.996;13.716;2022-07-30T09:20:03;10.55;;;9.23;;
9834;SDS011;4956;50.996;13.716;2022-07-30T09:23:27;9.85;;;8.52;;
9834;SDS011;4956;50.996;13.716;2022-07-30T09:27:23;13.05;;;8.50;;
9834;SDS011;4956;50.996;13.716;2022-07-30T09:30:44;9.97;;;8.17;;
9834;SDS011;4956;50.996;13.716;2022-07-30T09:34:37;9.68;;;7.72;;
9834;SDS011;4956;50.996;13.716;2022-07-30T09:37:59;7.22;;;6.60;;
9834;SDS011;4956;50.996;13.716;2022-07-30T09:41:39;9.50;;;7.28;;
9834;SDS011;4956;50.996;13.716;2022-07-30T09:45:12;9.48;;;6.97;;
9834;SDS011;4956;50.996;13.716;2022-07-30T09:48:36;8.20;;;7.00;;
9834;SDS011;4956;50.996;13.716;2022-07-30T09:51:56;11.80;;;7.30;;
9834;SDS011;4956;50.996;13.716;2022-07-30T09:59:26;8.02;;;7.10;;
9834;SDS011;4956;50.996;13.716;2022-07-30T10:02:48;9.70;;;8.60;;
9834;SDS011;4956;50.996;13.716;2022-07-30T10:06:32;10.68;;;7.30;;
9834;SDS011;4956;50.996;13.716;2022-07-30T10:09:57;8.90;;;7.55;;
9834;SDS011;4956;50.996;13.716;2022-07-30T10:13:18;8.55;;;7.65;;
9834;SDS011;4956;50.996;13.716;2022-07-30T10:16:40;9.85;;;7.07;;
9834;SDS011;4956;50.996;13.716;2022-07-30T10:20:00;8.13;;;7.32;;
9834;SDS011;4956;50.996;13.716;2022-07-30T10:23:56;8.82;;;7.40;;
9834;SDS011;4956;50.996;13.716;2022-07-30T10:27:35;8.52;;;7.53;;
9834;SDS011;4956;50.996;13.716;2022-07-30T10:31:13;9.93;;;7.45;;
9834;SDS011;4956;50.996;13.716;2022-07-30T10:34:34;8.70;;;6.65;;
9834;SDS011;4956;50.996;13.716;2022-07-30T10:37:55;7.38;;;6.55;;
9834;SDS011;4956;50.996;13.716;2022-07-30T10:41:23;7.90;;;7.10;;
9834;SDS011;4956;50.996;13.716;2022-07-30T10:45:14;9.23;;;7.28;;
9834;SDS011;4956;50.996;13.716;2022-07-30T10:48:37;8.23;;;7.40;;
9834;SDS011;4956;50.996;13.716;2022-07-30T10:51:58;8.63;;;7.85;;
9834;SDS011;4956;50.996;13.716;2022-07-30T10:55:20;8.18;;;7.10;;
9834;SDS011;4956;50.996;13.716;2022-07-30T10:58:57;8.98;;;7.25;;
9834;SDS011;4956;50.996;13.716;2022-07-30T11:02:19;9.57;;;8.10;;
9834;SDS011;4956;50.996;13.716;2022-07-30T11:05:39;8.00;;;7.22;;
9834;SDS011;4956;50.996;13.716;2022-07-30T11:09:00;8.15;;;7.32;;
9834;SDS011;4956;50.996;13.716;2022-07-30T11:16:06;10.55;;;7.65;;
9834;SDS011;4956;50.996;13.716;2022-07-30T11:19:26;9.47;;;8.50;;
9834;SDS011;4956;50.996;13.716;2022-07-30T11:22:49;8.00;;;7.20;;
9834;SDS011;4956;50.996;13.716;2022-07-30T11:26:09;10.02;;;8.60;;
9834;SDS011;4956;50.996;13.716;2022-07-30T11:29:36;8.15;;;6.88;;
9834;SDS011;4956;50.996;13.716;2022-07-30T11:36:24;10.35;;;7.97;;
9834;SDS011;4956;50.996;13.716;2022-07-30T11:43:18;9.23;;;7.65;;
9834;SDS011;4956;50.996;13.716;2022-07-30T11:46:46;8.52;;;7.68;;
9834;SDS011;4956;50.996;13.716;2022-07-30T11:50:07;9.32;;;7.68;;
9834;SDS011;4956;50.996;13.716;2022-07-30T11:53:36;8.05;;;7.20;;
9834;SDS011;4956;50.996;13.716;2022-07-30T11:56:57;11.03;;;8.93;;
9834;SDS011;4956;50.996;13.716;2022-07-30T12:00:17;10.73;;;8.27;;
9834;SDS011;4956;50.996;13.716;2022-07-30T12:03:42;10.40;;;8.48;;
9834;SDS011;4956;50.996;13.716;2022-07-30T12:07:03;11.35;;;8.20;;
9834;SDS011;4956;50.996;13.716;2022-07-30T12:10:24;9.63;;;8.40;;
9834;SDS011;4956;50.996;13.716;2022-07-30T12:13:53;8.77;;;7.32;;
9834;SDS011;4956;50.996;13.716;2022-07-30T12:17:14;11.18;;;8.38;;
9834;SDS011;4956;50.996;13.716;2022-07-30T12:20:35;8.03;;;7.03;;
9834;SDS011;4956;50.996;13.716;2022-07-30T12:23:56;8.20;;;7.40;;
9834;SDS011;4956;50.996;13.716;2022-07-30T12:27:18;7.95;;;7.15;;
9834;SDS011;4956;50.996;13.716;2022-07-30T12:30:41;7.80;;;6.80;;
9834;SDS011;4956;50.996;13.716;2022-07-30T12:34:01;8.98;;;6.55;;
9834;SDS011;4956;50.996;13.716;2022-07-30T12:37:22;8.35;;;7.22;;
9834;SDS011;4956;50.996;13.716;2022-07-30T12:40:57;10.63;;;7.38;;
9834;SDS011;4956;50.996;13.716;2022-07-30T12:44:34;8.50;;;6.63;;
9834;SDS011;4956;50.996;13.716;2022-07-30T12:47:57;9.32;;;7.55;;
9834;SDS011;4956;50.996;13.716;2022-07-30T12:51:18;10.73;;;8.45;;
9834;SDS011;4956;50.996;13.716;2022-07-30T12:54:39;10.10;;;8.43;;
9834;SDS011;4956;50.996;13.716;2022-07-30T12:58:00;8.73;;;7.00;;
9834;SDS011;4956;50.996;13.716;2022-07-30T13:01:39;10.60;;;8.57;;
9834;SDS011;4956;50.996;13.716;2022-07-30T13:05:06;9.70;;;6.68;;
9834;SDS011;4956;50.996;13.716;2022-07-30T13:12:11;10.45;;;7.35;;
9834;SDS011;4956;50.996;13.716;2022-07-30T13:15:32;8.63;;;7.55;;
9834;SDS011;4956;50.996;13.716;2022-07-30T13:18:52;8.03;;;6.97;;
9834;SDS011;4956;50.996;13.716;2022-07-30T13:22:12;7.93;;;6.70;;
9834;SDS011;4956;50.996;13.716;2022-07-30T13:25:33;8.23;;;6.87;;
9834;SDS011;4956;50.996;13.716;2022-07-30T13:28:53;12.93;;;6.90;;
9834;SDS011;4956;50.996;13.716;2022-07-30T13:32:13;10.63;;;7.00;;
9834;SDS011;4956;50.996;13.716;2022-07-30T13:35:34;10.03;;;6.93;;
9834;SDS011;4956;50.996;13.716;2022-07-30T13:38:54;9.93;;;7.70;;
9834;SDS011;4956;50.996;13.716;2022-07-30T13:42:14;8.30;;;6.78;;
9834;SDS011;4956;50.996;13.716;2022-07-30T13:45:35;7.10;;;6.40;;
9834;SDS011;4956;50.996;13.716;2022-07-30T13:48:55;7.25;;;6.45;;
9834;SDS011;4956;50.996;13.716;2022-07-30T13:52:16;10.83;;;7.53;;
9834;SDS011;4956;50.996;13.716;2022-07-30T13:55:36;8.97;;;7.97;;
9834;SDS011;4956;50.996;13.716;2022-07-30T13:58:57;10.82;;;7.78;;
9834;SDS011;4956;50.996;13.716;2022-07-30T14:02:18;9.55;;;7.90;;
9834;SDS011;4956;50.996;13.716;2022-07-30T14:05:39;11.70;;;8.30;;
9834;SDS011;4956;50.996;13.716;2022-07-30T14:09:00;8.60;;;7.18;;
9834;SDS011;4956;50.996;13.716;2022-07-30T14:12:20;7.87;;;7.10;;
9834;SDS011;4956;50.996;13.716;2022-07-30T14:15:41;11.82;;;7.75;;
9834;SDS011;4956;50.996;13.716;2022-07-30T14:19:01;9.65;;;7.57;;
9834;SDS011;4956;50.996;13.716;2022-07-30T14:22:21;11.15;;;7.70;;
9834;SDS011;4956;50.996;13.716;2022-07-30T14:25:42;11.30;;;7.45;;
9834;SDS011;4956;50.996;13.716;2022-07-30T14:29:04;10.43;;;7.15;;
9834;SDS011;4956;50.996;13.716;2022-07-30T14:32:24;10.02;;;7.05;;
9834;SDS011;4956;50.996;13.716;2022-07-30T14:35:45;6.88;;;6.10;;
9834;SDS011;4956;50.996;13.716;2022-07-30T14:39:05;10.73;;;6.70;;
9834;SDS011;4956;50.996;13.716;2022-07-30T14:42:25;8.70;;;6.90;;
9834;SDS011;4956;50.996;13.716;2022-07-30T14:45:45;13.53;;;6.67;;
9834;SDS011;4956;50.996;13.716;2022-07-30T14:49:11;8.40;;;6.78;;
9834;SDS011;4956;50.996;13.716;2022-07-30T14:52:32;7.65;;;6.30;;
9834;SDS011;4956;50.996;13.716;2022-07-30T14:55:53;10.95;;;6.38;;
9834;SDS011;4956;50.996;13.716;2022-07-30T14:59:14;8.07;;;5.83;;
9834;SDS011;4956;50.996;13.716;2022-07-30T15:02:34;6.82;;;5.65;;
9834;SDS011;4956;50.996;13.716;2022-07-30T15:05:55;7.63;;;5.63;;
9834;SDS011;4956;50.996;13.716;2022-07-30T15:09:15;6.60;;;5.90;;
9834;SDS011;4956;50.996;13.716;2022-07-30T15:12:35;10.57;;;6.20;;
9834;SDS011;4956;50.996;13.716;2022-07-30T15:15:56;10.23;;;6.45;;
9834;SDS011;4956;50.996;13.716;2022-07-30T15:19:16;7.00;;;5.57;;
9834;SDS011;4956;50.996;13.716;2022-07-30T15:22:36;7.70;;;5.90;;
9834;SDS011;4956;50.996;13.716;2022-07-30T15:25:58;5.90;;;5.30;;
9834;SDS011;4956;50.996;13.716;2022-07-30T15:29:18;4.85;;;4.35;;
9834;SDS011;4956;50.996;13.716;2022-07-30T15:32:39;5.68;;;4.30;;
9834;SDS011;4956;50.996;13.716;2022-07-30T15:35:59;6.23;;;4.60;;
9834;SDS011;4956;50.996;13.716;2022-07-30T15:39:20;4.40;;;4.00;;
9834;SDS011;4956;50.996;13.716;2022-07-30T15:42:40;4.82;;;3.40;;
9834;SDS011;4956;50.996;13.716;2022-07-30T15:46:01;6.53;;;3.85;;
9834;SDS011;4956;50.996;13.716;2022-07-30T15:49:21;5.47;;;4.00;;
9834;SDS011;4956;50.996;13.716;2022-07-30T15:52:42;6.05;;;4.03;;
9834;SDS011;4956;50.996;13.716;2022-07-30T15:56:03;4.90;;;4.20;;
9834;SDS011;4956;50.996;13.716;2022-07-30T15:59:23;4.65;;;4.03;;
9834;SDS011;4956;50.996;13.716;2022-07-30T16:02:44;5.47;;;4.50;;
9834;SDS011;4956;50.996;13.716;2022-07-30T16:06:04;3.90;;;3.60;;
9834;SDS011;4956;50.996;13.716;2022-07-30T16:09:25;3.70;;;2.33;;
9834;SDS011;4956;50.996;13.716;2022-07-30T16:12:45;4.28;;;2.50;;
9834;SDS011;4956;50.996;13.716;2022-07-30T16:16:06;2.35;;;2.15;;
9834;SDS011;4956;50.996;13.716;2022-07-30T16:19:26;3.40;;;2.40;;
9834;SDS011;4956;50.996;13.716;2022-07-30T16:22:47;2.50;;;2.10;;
9834;SDS011;4956;50.996;13.716;2022-07-30T16:26:07;2.47;;;2.27;;
9834;SDS011;4956;50.996;13.716;2022-07-30T16:29:28;3.25;;;2.40;;
9834;SDS011;4956;50.996;13.716;2022-07-30T16:32:48;3.25;;;2.35;;
9834;SDS011;4956;50.996;13.716;2022-07-30T16:36:09;4.53;;;2.60;;
9834;SDS011;4956;50.996;13.716;2022-07-30T16:39:29;3.08;;;2.35;;
9834;SDS011;4956;50.996;13.716;2022-07-30T16:42:50;2.50;;;2.30;;
9834;SDS011;4956;50.996;13.716;2022-07-30T16:46:12;3.33;;;2.92;;
9834;SDS011;4956;50.996;13.716;2022-07-30T16:49:32;6.47;;;4.43;;
9834;SDS011;4956;50.996;13.716;2022-07-30T16:52:52;6.67;;;5.10;;
9834;SDS011;4956;50.996;13.716;2022-07-30T16:56:13;5.77;;;3.80;;
9834;SDS011;4956;50.996;13.716;2022-07-30T16:59:34;3.15;;;2.40;;
9834;SDS011;4956;50.996;13.716;2022-07-30T17:02:55;3.50;;;3.20;;
9834;SDS011;4956;50.996;13.716;2022-07-30T17:06:15;6.50;;;4.70;;
9834;SDS011;4956;50.996;13.716;2022-07-30T17:09:36;5.63;;;3.97;;
9834;SDS011;4956;50.996;13.716;2022-07-30T17:12:56;8.68;;;6.35;;
9834;SDS011;4956;50.996;13.716;2022-07-30T17:16:16;8.53;;;7.50;;
9834;SDS011;4956;50.996;13.716;2022-07-30T17:19:40;7.55;;;6.45;;
9834;SDS011;4956;50.996;13.716;2022-07-30T17:23:01;8.63;;;6.45;;
9834;SDS011;4956;50.996;13.716;2022-07-30T17:26:21;6.32;;;5.68;;
9834;SDS011;4956;50.996;13.716;2022-07-30T17:29:42;4.22;;;3.83;;
9834;SDS011;4956;50.996;13.716;2022-07-30T17:33:02;4.25;;;3.35;;
9834;SDS011;4956;50.996;13.716;2022-07-30T17:36:25;4.15;;;3.38;;
9834;SDS011;4956;50.996;13.716;2022-07-30T17:39:45;4.13;;;3.73;;
9834;SDS011;4956;50.996;13.716;2022-07-30T17:43:06;7.45;;;5.50;;
9834;SDS011;4956;50.996;13.716;2022-07-30T17:46:26;10.27;;;8.00;;
9834;SDS011;4956;50.996;13.716;2022-07-30T17:49:46;9.87;;;7.73;;
9834;SDS011;4956;50.996;13.716;2022-07-30T17:53:07;10.20;;;6.75;;
9834;SDS011;4956;50.996;13.716;2022-07-30T17:56:27;7.75;;;6.95;;
9834;SDS011;4956;50.996;13.716;2022-07-30T17:59:48;14.65;;;9.38;;
9834;SDS011;4956;50.996;13.716;2022-07-30T18:03:08;12.97;;;8.43;;
9834;SDS011;4956;50.996;13.716;2022-07-30T18:06:28;9.77;;;7.43;;
9834;SDS011;4956;50.996;13.716;2022-07-30T18:09:49;8.30;;;6.80;;
9834;SDS011;4956;50.996;13.716;2022-07-30T18:13:09;8.73;;;7.10;;
9834;SDS011;4956;50.996;13.716;2022-07-30T18:16:32;8.82;;;7.35;;
9834;SDS011;4956;50.996;13.716;2022-07-30T18:19:53;9.10;;;8.13;;
9834;SDS011;4956;50.996;13.716;2022-07-30T18:23:13;8.17;;;7.37;;
9834;SDS011;4956;50.996;13.716;2022-07-30T18:26:38;9.18;;;7.22;;
9834;SDS011;4956;50.996;13.716;2022-07-30T18:29:59;7.00;;;6.35;;
9834;SDS011;4956;50.996;13.716;2022-07-30T18:33:19;7.60;;;6.90;;
9834;SDS011;4956;50.996;13.716;2022-07-30T18:36:39;8.57;;;7.53;;
9834;SDS011;4956;50.996;13.716;2022-07-30T18:40:00;10.03;;;8.53;;
9834;SDS011;4956;50.996;13.716;2022-07-30T18:43:20;8.00;;;7.20;;
9834;SDS011;4956;50.996;13.716;2022-07-30T18:46:41;8.80;;;7.30;;
9834;SDS011;4956;50.996;13.716;2022-07-30T18:50:02;7.83;;;7.03;;
9834;SDS011;4956;50.996;13.716;2022-07-30T18:53:22;8.55;;;7.60;;
9834;SDS011;4956;50.996;13.716;2022-07-30T18:56:43;9.27;;;7.10;;
9834;SDS011;4956;50.996;13.716;2022-07-30T19:00:04;8.65;;;6.97;;
9834;SDS011;4956;50.996;13.716;2022-07-30T19:03:27;8.02;;;6.82;;
9834;SDS011;4956;50.996;13.716;2022-07-30T19:06:50;8.05;;;7.20;;
9834;SDS011;4956;50.996;13.716;2022-07-30T19:10:10;10.35;;;7.60;;
9834;SDS011;4956;50.996;13.716;2022-07-30T19:13:30;9.95;;;7.68;;
9834;SDS011;4956;50.996;13.716;2022-07-30T19:16:53;8.88;;;7.55;;
9834;SDS011;4956;50.996;13.716;2022-07-30T19:20:13;7.93;;;7.13;;
9834;SDS011;4956;50.996;13.716;2022-07-30T19:23:35;8.50;;;7.70;;
9834;SDS011;4956;50.996;13.716;2022-07-30T19:26:56;8.52;;;7.68;;
9834;SDS011;4956;50.996;13.716;2022-07-30T19:30:16;10.53;;;8.60;;
9834;SDS011;4956;50.996;13.716;2022-07-30T19:33:36;10.20;;;9.10;;
9834;SDS011;4956;50.996;13.716;2022-07-30T19:36:57;8.33;;;7.57;;
9834;SDS011;4956;50.996;13.716;2022-07-30T19:40:17;9.17;;;8.37;;
9834;SDS011;4956;50.996;13.716;2022-07-30T19:43:37;9.18;;;8.27;;
9834;SDS011;4956;50.996;13.716;2022-07-30T19:46:58;9.77;;;7.95;;
9834;SDS011;4956;50.996;13.716;2022-07-30T19:50:18;8.65;;;7.85;;
9834;SDS011;4956;50.996;13.716;2022-07-30T19:53:38;9.40;;;8.50;;
9834;SDS011;4956;50.996;13.716;2022-07-30T19:56:59;10.60;;;8.00;;
9834;SDS011;4956;50.996;13.716;2022-07-30T20:00:19;8.50;;;7.70;;
9834;SDS011;4956;50.996;13.716;2022-07-30T20:03:40;9.45;;;8.20;;
9834;SDS011;4956;50.996;13.716;2022-07-30T20:07:01;9.40;;;8.50;;
9834;SDS011;4956;50.996;13.716;2022-07-30T20:10:21;10.27;;;9.27;;
9834;SDS011;4956;50.996;13.716;2022-07-30T20:13:41;9.20;;;8.30;;
9834;SDS011;4956;50.996;13.716;2022-07-30T20:17:02;9.52;;;8.60;;
9834;SDS011;4956;50.996;13.716;2022-07-30T20:20:22;10.35;;;8.65;;
9834;SDS011;4956;50.996;13.716;2022-07-30T20:23:43;10.95;;;8.60;;
9834;SDS011;4956;50.996;13.716;2022-07-30T20:27:06;9.00;;;8.10;;
9834;SDS011;4956;50.996;13.716;2022-07-30T20:30:26;9.30;;;8.40;;
9834;SDS011;4956;50.996;13.716;2022-07-30T20:33:47;10.00;;;8.87;;
9834;SDS011;4956;50.996;13.716;2022-07-30T20:37:07;11.68;;;8.13;;
9834;SDS011;4956;50.996;13.716;2022-07-30T20:40:28;9.27;;;8.38;;
9834;SDS011;4956;50.996;13.716;2022-07-30T20:43:49;8.80;;;7.90;;
9834;SDS011;4956;50.996;13.716;2022-07-30T20:47:10;10.02;;;8.50;;
9834;SDS011;4956;50.996;13.716;2022-07-30T20:50:31;9.50;;;8.60;;
9834;SDS011;4956;50.996;13.716;2022-07-30T20:53:51;8.87;;;8.00;;
9834;SDS011;4956;50.996;13.716;2022-07-30T20:57:11;11.50;;;8.80;;
9834;SDS011;4956;50.996;13.716;2022-07-30T21:00:34;10.87;;;9.53;;